»·PEaware :: DIHNF KSEA-KYKM

DIHNF :: KSEA-KYKM

FLIGHT INFORMATION

Flight Status: Arrived
Operator: Unknown
More flights by this operator :: More flights under this callsign
Pilot: Klaus A. (15485)
Aircraft: BEECH AIRCRAFT BARON
(BE58)
More flights by this aircraft type
Origin: KSEA Seattle-Tacoma Intl
United States
Destination: KYKM Yakima Air Term/Mcallister
United States
More flights between these airports :: More routes between these airports
Route: SEA7 SEA V4 YKM
File this flight plan on PilotEdge
Remarks:
Altitude:
(Current/Filed)
11,000ft
Speed:
(Current/Filed)
170kts
Departed: 15-Nov-20 10:23 AM
Arrived: 15-Nov-20 11:03 AM
Distance/Time
Traveled:
89nm/0:40
Distance/Time
To Go:
Arrived

Flight Plot

Page will automatically refresh every two minutes.

Flight plan parsing failed; only flown route is shown


Map Options




Map Legend


Flown Route
Filed Route
Departure Airport
Arrival Airport
Navaid (VOR, NDB)
Fix

Horizontal Profiles

Position Reports

Time Latitude Longitude Heading Altitude Ground
Speed
15-Nov-20 09:57 47.439014 -122.315044 55 437ft 0kts
15-Nov-20 09:58 47.439014 -122.315044 55 437ft 0kts
15-Nov-20 09:59 47.439014 -122.315044 55 437ft 0kts
15-Nov-20 10:00 47.439014 -122.315044 55 437ft 0kts
15-Nov-20 10:01 47.439014 -122.315044 55 437ft 0kts
15-Nov-20 10:02 47.439014 -122.315044 55 437ft 0kts
15-Nov-20 10:03 47.439014 -122.315044 55 437ft 0kts
15-Nov-20 10:04 47.439014 -122.315044 55 437ft 0kts
15-Nov-20 10:05 47.439014 -122.315044 55 437ft 0kts
15-Nov-20 10:06 47.439014 -122.315044 55 437ft 0kts
15-Nov-20 10:07 47.439014 -122.315044 55 437ft 0kts
15-Nov-20 10:08 47.439014 -122.315044 55 437ft 0kts
15-Nov-20 10:09 47.439014 -122.315044 55 437ft 0kts
15-Nov-20 10:10 47.439014 -122.315044 55 437ft 0kts
15-Nov-20 10:11 47.439014 -122.315044 55 437ft 0kts
15-Nov-20 10:12 47.439014 -122.315044 55 437ft 0kts
15-Nov-20 10:13 47.439671 -122.313722 34 437ft 11kts
15-Nov-20 10:14 47.444185 -122.313581 1 437ft 19kts
15-Nov-20 10:16 47.450158 -122.313531 359 437ft 22kts
15-Nov-20 10:17 47.456560 -122.313464 0 437ft 23kts
15-Nov-20 10:18 47.462928 -122.313410 359 437ft 16kts
15-Nov-20 10:19 47.463668 -122.312441 90 437ft 0kts
15-Nov-20 10:20 47.463668 -122.312441 90 437ft 0kts
15-Nov-20 10:21 47.463668 -122.312441 90 437ft 0kts
15-Nov-20 10:22 47.463667 -122.312394 92 437ft 2kts
15-Nov-20 10:23 47.451213 -122.310980 178 632ft 117kts
15-Nov-20 10:24 47.415699 -122.306926 176 2008ft 136kts
15-Nov-20 10:25 47.377777 -122.306732 175 3316ft 138kts
15-Nov-20 10:26 47.340334 -122.295491 139 4387ft 144kts
15-Nov-20 10:27 47.326686 -122.241596 103 5419ft 144kts
15-Nov-20 10:28 47.316021 -122.184571 107 6564ft 146kts
15-Nov-20 10:29 47.305124 -122.126511 106 7595ft 149kts
15-Nov-20 10:29 47.295642 -122.077355 107 8414ft 151kts
15-Nov-20 10:31 47.281899 -122.007318 103 9348ft 154kts
15-Nov-20 10:32 47.267942 -121.947551 119 9978ft 156kts
15-Nov-20 10:32 47.248304 -121.902512 122 10511ft 156kts
15-Nov-20 10:34 47.220426 -121.838348 123 11073ft 165kts
15-Nov-20 10:34 47.197702 -121.788118 121 10959ft 179kts
15-Nov-20 10:36 47.166200 -121.715551 123 10972ft 181kts
15-Nov-20 10:36 47.142754 -121.664393 123 10971ft 181kts
15-Nov-20 10:37 47.114427 -121.602742 123 10972ft 183kts
15-Nov-20 10:38 47.085167 -121.539220 123 10972ft 189kts
15-Nov-20 10:39 47.055511 -121.474983 123 10971ft 190kts
15-Nov-20 10:40 47.025774 -121.410716 123 10971ft 190kts
15-Nov-20 10:41 46.996036 -121.346596 124 10971ft 190kts
15-Nov-20 10:42 46.966105 -121.282229 124 10971ft 190kts
15-Nov-20 10:43 46.936193 -121.218028 124 10971ft 190kts
15-Nov-20 10:44 46.906313 -121.154032 124 10971ft 190kts
15-Nov-20 10:45 46.876306 -121.089974 124 10971ft 190kts
15-Nov-20 10:46 46.845499 -121.024329 124 10691ft 202kts
15-Nov-20 10:47 46.813208 -120.955683 124 10340ft 205kts
15-Nov-20 10:48 46.780573 -120.886590 124 9768ft 201kts
15-Nov-20 10:49 46.749382 -120.820505 124 9021ft 194kts
15-Nov-20 10:50 46.718835 -120.756022 124 8273ft 192kts
15-Nov-20 10:51 46.688516 -120.692185 124 7539ft 191kts
15-Nov-20 10:52 46.658427 -120.628975 124 6815ft 188kts
15-Nov-20 10:53 46.628545 -120.566338 124 6095ft 186kts
15-Nov-20 10:54 46.603366 -120.501608 105 5378ft 184kts
15-Nov-20 10:55 46.590510 -120.431534 104 5011ft 168kts
15-Nov-20 10:56 46.579622 -120.368547 102 4991ft 153kts
15-Nov-20 10:57 46.561661 -120.316644 173 4997ft 151kts
15-Nov-20 10:58 46.533240 -120.344164 268 4876ft 155kts
15-Nov-20 10:59 46.534689 -120.411743 280 3936ft 168kts
15-Nov-20 11:00 46.550849 -120.472694 296 1767ft 154kts
15-Nov-20 11:01 46.563039 -120.521723 288 1344ft 120kts
15-Nov-20 11:02 46.569976 -120.549198 298 1103ft 10kts
15-Nov-20 11:03 46.570838 -120.549313 23 1103ft 0kts
15-Nov-20 11:04 46.570504 -120.546607 111 1103ft 16kts
15-Nov-20 11:05 46.569781 -120.543493 64 1103ft 8kts
15-Nov-20 11:06 46.570206 -120.543283 87 1103ft 0kts
15-Nov-20 11:07 46.570206 -120.543283 87 1103ft 0kts
15-Nov-20 11:08 46.570206 -120.543283 87 1103ft 0kts

Navigation Log

Ident Type
Flight plan parsing failed, navigation log unavailable